sensor_id;sensor_type;location;lat;lon;timestamp;P1;durP1;ratioP1;P2;durP2;ratioP2
20557;SDS011;10437;48.156;11.530;2023-06-26T00:01:31;8.32;;;5.63;;
20557;SDS011;10437;48.156;11.530;2023-06-26T00:03:58;10.35;;;5.68;;
20557;SDS011;10437;48.156;11.530;2023-06-26T00:06:26;9.38;;;6.18;;
20557;SDS011;10437;48.156;11.530;2023-06-26T00:08:53;9.57;;;6.07;;
20557;SDS011;10437;48.156;11.530;2023-06-26T00:11:21;9.95;;;6.00;;
20557;SDS011;10437;48.156;11.530;2023-06-26T00:13:48;10.75;;;6.68;;
20557;SDS011;10437;48.156;11.530;2023-06-26T00:16:16;11.05;;;6.10;;
20557;SDS011;10437;48.156;11.530;2023-06-26T00:18:43;10.60;;;5.80;;
20557;SDS011;10437;48.156;11.530;2023-06-26T00:21:10;9.02;;;5.60;;
20557;SDS011;10437;48.156;11.530;2023-06-26T00:23:37;10.85;;;5.90;;
20557;SDS011;10437;48.156;11.530;2023-06-26T00:26:05;9.88;;;5.65;;
20557;SDS011;10437;48.156;11.530;2023-06-26T00:28:31;11.82;;;5.90;;
20557;SDS011;10437;48.156;11.530;2023-06-26T00:30:58;8.50;;;5.78;;
20557;SDS011;10437;48.156;11.530;2023-06-26T00:33:27;8.73;;;5.57;;
20557;SDS011;10437;48.156;11.530;2023-06-26T00:35:54;8.95;;;5.72;;
20557;SDS011;10437;48.156;11.530;2023-06-26T00:38:21;9.02;;;5.68;;
20557;SDS011;10437;48.156;11.530;2023-06-26T00:40:48;8.55;;;5.53;;
20557;SDS011;10437;48.156;11.530;2023-06-26T00:43:15;9.35;;;6.03;;
20557;SDS011;10437;48.156;11.530;2023-06-26T00:45:42;8.60;;;5.95;;
20557;SDS011;10437;48.156;11.530;2023-06-26T00:48:09;9.32;;;5.15;;
20557;SDS011;10437;48.156;11.530;2023-06-26T00:50:39;8.82;;;5.78;;
20557;SDS011;10437;48.156;11.530;2023-06-26T00:53:07;8.82;;;5.25;;
20557;SDS011;10437;48.156;11.530;2023-06-26T00:55:36;10.60;;;5.50;;
20557;SDS011;10437;48.156;11.530;2023-06-26T00:58:03;9.38;;;5.47;;
20557;SDS011;10437;48.156;11.530;2023-06-26T01:00:30;10.15;;;5.55;;
20557;SDS011;10437;48.156;11.530;2023-06-26T01:02:57;7.65;;;5.40;;
20557;SDS011;10437;48.156;11.530;2023-06-26T01:05:24;8.95;;;5.97;;
20557;SDS011;10437;48.156;11.530;2023-06-26T01:07:53;7.57;;;5.40;;
20557;SDS011;10437;48.156;11.530;2023-06-26T01:10:20;7.43;;;5.25;;
20557;SDS011;10437;48.156;11.530;2023-06-26T01:12:47;8.82;;;5.47;;
20557;SDS011;10437;48.156;11.530;2023-06-26T01:15:15;11.05;;;5.75;;
20557;SDS011;10437;48.156;11.530;2023-06-26T01:17:42;9.52;;;5.25;;
20557;SDS011;10437;48.156;11.530;2023-06-26T01:20:12;7.03;;;4.63;;
20557;SDS011;10437;48.156;11.530;2023-06-26T01:22:42;12.77;;;5.25;;
20557;SDS011;10437;48.156;11.530;2023-06-26T01:25:18;8.18;;;4.97;;
20557;SDS011;10437;48.156;11.530;2023-06-26T01:27:51;8.88;;;5.68;;
20557;SDS011;10437;48.156;11.530;2023-06-26T01:30:19;8.23;;;5.53;;
20557;SDS011;10437;48.156;11.530;2023-06-26T01:32:47;8.27;;;5.32;;
20557;SDS011;10437;48.156;11.530;2023-06-26T01:35:16;11.35;;;5.60;;
20557;SDS011;10437;48.156;11.530;2023-06-26T01:37:43;11.48;;;5.47;;
20557;SDS011;10437;48.156;11.530;2023-06-26T01:40:11;9.60;;;5.40;;
20557;SDS011;10437;48.156;11.530;2023-06-26T01:42:38;8.15;;;5.40;;
20557;SDS011;10437;48.156;11.530;2023-06-26T01:45:09;7.38;;;5.13;;
20557;SDS011;10437;48.156;11.530;2023-06-26T01:47:41;11.10;;;5.68;;
20557;SDS011;10437;48.156;11.530;2023-06-26T01:50:15;10.05;;;6.13;;
20557;SDS011;10437;48.156;11.530;2023-06-26T01:52:46;9.18;;;5.80;;
20557;SDS011;10437;48.156;11.530;2023-06-26T01:55:20;10.27;;;5.53;;
20557;SDS011;10437;48.156;11.530;2023-06-26T01:57:52;9.70;;;5.40;;
20557;SDS011;10437;48.156;11.530;2023-06-26T02:00:24;11.13;;;5.97;;
20557;SDS011;10437;48.156;11.530;2023-06-26T02:02:51;9.57;;;5.50;;
20557;SDS011;10437;48.156;11.530;2023-06-26T02:05:18;10.38;;;5.80;;
20557;SDS011;10437;48.156;11.530;2023-06-26T02:07:46;9.68;;;5.65;;
20557;SDS011;10437;48.156;11.530;2023-06-26T02:10:13;9.65;;;5.90;;
20557;SDS011;10437;48.156;11.530;2023-06-26T02:12:40;8.95;;;5.93;;
20557;SDS011;10437;48.156;11.530;2023-06-26T02:15:08;9.77;;;5.60;;
20557;SDS011;10437;48.156;11.530;2023-06-26T02:17:36;10.85;;;5.93;;
20557;SDS011;10437;48.156;11.530;2023-06-26T02:20:03;10.82;;;5.80;;
20557;SDS011;10437;48.156;11.530;2023-06-26T02:22:34;12.00;;;5.57;;
20557;SDS011;10437;48.156;11.530;2023-06-26T02:25:01;8.98;;;5.78;;
20557;SDS011;10437;48.156;11.530;2023-06-26T02:27:28;9.63;;;5.60;;
20557;SDS011;10437;48.156;11.530;2023-06-26T02:29:56;8.95;;;5.72;;
20557;SDS011;10437;48.156;11.530;2023-06-26T02:32:23;8.23;;;5.47;;
20557;SDS011;10437;48.156;11.530;2023-06-26T02:34:51;9.88;;;5.75;;
20557;SDS011;10437;48.156;11.530;2023-06-26T02:37:19;9.52;;;5.65;;
20557;SDS011;10437;48.156;11.530;2023-06-26T02:39:46;13.10;;;6.30;;
20557;SDS011;10437;48.156;11.530;2023-06-26T02:42:13;9.75;;;5.63;;
20557;SDS011;10437;48.156;11.530;2023-06-26T02:44:40;8.80;;;5.85;;
20557;SDS011;10437;48.156;11.530;2023-06-26T02:47:07;9.85;;;5.68;;
20557;SDS011;10437;48.156;11.530;2023-06-26T02:49:34;9.40;;;6.22;;
20557;SDS011;10437;48.156;11.530;2023-06-26T02:52:03;10.18;;;5.75;;
20557;SDS011;10437;48.156;11.530;2023-06-26T02:54:30;10.07;;;5.93;;
20557;SDS011;10437;48.156;11.530;2023-06-26T02:56:57;11.90;;;6.63;;
20557;SDS011;10437;48.156;11.530;2023-06-26T02:59:25;10.70;;;6.43;;
20557;SDS011;10437;48.156;11.530;2023-06-26T03:01:52;11.70;;;5.95;;
20557;SDS011;10437;48.156;11.530;2023-06-26T03:04:19;9.95;;;6.40;;
20557;SDS011;10437;48.156;11.530;2023-06-26T03:06:47;11.30;;;6.03;;
20557;SDS011;10437;48.156;11.530;2023-06-26T03:09:15;12.05;;;6.18;;
20557;SDS011;10437;48.156;11.530;2023-06-26T03:11:43;9.90;;;5.95;;
20557;SDS011;10437;48.156;11.530;2023-06-26T03:14:10;11.52;;;6.05;;
20557;SDS011;10437;48.156;11.530;2023-06-26T03:16:37;8.20;;;5.55;;
20557;SDS011;10437;48.156;11.530;2023-06-26T03:19:04;9.77;;;5.85;;
20557;SDS011;10437;48.156;11.530;2023-06-26T03:21:31;11.43;;;6.32;;
20557;SDS011;10437;48.156;11.530;2023-06-26T03:23:58;10.93;;;6.30;;
20557;SDS011;10437;48.156;11.530;2023-06-26T03:26:26;8.80;;;5.70;;
20557;SDS011;10437;48.156;11.530;2023-06-26T03:28:53;10.38;;;6.35;;
20557;SDS011;10437;48.156;11.530;2023-06-26T03:31:21;8.93;;;5.93;;
20557;SDS011;10437;48.156;11.530;2023-06-26T03:33:48;10.40;;;6.55;;
20557;SDS011;10437;48.156;11.530;2023-06-26T03:36:15;11.60;;;6.22;;
20557;SDS011;10437;48.156;11.530;2023-06-26T03:38:42;12.70;;;6.45;;
20557;SDS011;10437;48.156;11.530;2023-06-26T03:41:09;9.40;;;6.15;;
20557;SDS011;10437;48.156;11.530;2023-06-26T03:43:38;7.47;;;5.07;;
20557;SDS011;10437;48.156;11.530;2023-06-26T03:46:04;10.35;;;6.40;;
20557;SDS011;10437;48.156;11.530;2023-06-26T03:48:31;9.82;;;5.72;;
20557;SDS011;10437;48.156;11.530;2023-06-26T03:50:58;9.60;;;6.20;;
20557;SDS011;10437;48.156;11.530;2023-06-26T03:53:27;10.88;;;5.93;;
20557;SDS011;10437;48.156;11.530;2023-06-26T03:55:54;9.57;;;6.05;;
20557;SDS011;10437;48.156;11.530;2023-06-26T03:58:21;10.82;;;6.03;;
20557;SDS011;10437;48.156;11.530;2023-06-26T04:00:49;9.43;;;5.88;;
20557;SDS011;10437;48.156;11.530;2023-06-26T04:03:16;9.93;;;6.15;;
20557;SDS011;10437;48.156;11.530;2023-06-26T04:05:43;10.55;;;5.75;;
20557;SDS011;10437;48.156;11.530;2023-06-26T04:08:10;10.32;;;5.70;;
20557;SDS011;10437;48.156;11.530;2023-06-26T04:10:37;10.00;;;6.30;;
20557;SDS011;10437;48.156;11.530;2023-06-26T04:13:05;10.00;;;5.95;;
20557;SDS011;10437;48.156;11.530;2023-06-26T04:15:32;10.57;;;5.97;;
20557;SDS011;10437;48.156;11.530;2023-06-26T04:18:00;11.75;;;6.45;;
20557;SDS011;10437;48.156;11.530;2023-06-26T04:20:28;9.85;;;6.45;;
20557;SDS011;10437;48.156;11.530;2023-06-26T04:22:55;10.35;;;6.10;;
20557;SDS011;10437;48.156;11.530;2023-06-26T04:25:22;12.23;;;6.57;;
20557;SDS011;10437;48.156;11.530;2023-06-26T04:27:54;9.13;;;5.70;;
20557;SDS011;10437;48.156;11.530;2023-06-26T04:30:21;12.40;;;6.10;;
20557;SDS011;10437;48.156;11.530;2023-06-26T04:32:48;11.60;;;6.68;;
20557;SDS011;10437;48.156;11.530;2023-06-26T04:35:17;9.90;;;5.93;;
20557;SDS011;10437;48.156;11.530;2023-06-26T04:37:45;9.68;;;6.38;;
20557;SDS011;10437;48.156;11.530;2023-06-26T04:40:12;10.45;;;6.20;;
20557;SDS011;10437;48.156;11.530;2023-06-26T04:42:39;11.25;;;6.60;;
20557;SDS011;10437;48.156;11.530;2023-06-26T04:45:06;10.55;;;6.38;;
20557;SDS011;10437;48.156;11.530;2023-06-26T04:47:34;11.30;;;6.22;;
20557;SDS011;10437;48.156;11.530;2023-06-26T04:50:01;10.23;;;6.32;;
20557;SDS011;10437;48.156;11.530;2023-06-26T04:52:29;10.93;;;6.10;;
20557;SDS011;10437;48.156;11.530;2023-06-26T04:54:56;12.30;;;6.25;;
20557;SDS011;10437;48.156;11.530;2023-06-26T04:57:23;11.00;;;6.47;;
20557;SDS011;10437;48.156;11.530;2023-06-26T04:59:50;10.98;;;6.38;;
20557;SDS011;10437;48.156;11.530;2023-06-26T05:02:18;10.52;;;6.45;;
20557;SDS011;10437;48.156;11.530;2023-06-26T05:04:45;11.55;;;7.43;;
20557;SDS011;10437;48.156;11.530;2023-06-26T05:07:13;11.85;;;5.78;;
20557;SDS011;10437;48.156;11.530;2023-06-26T05:09:42;13.70;;;6.25;;
20557;SDS011;10437;48.156;11.530;2023-06-26T05:12:08;11.23;;;6.30;;
20557;SDS011;10437;48.156;11.530;2023-06-26T05:14:37;12.90;;;7.20;;
20557;SDS011;10437;48.156;11.530;2023-06-26T05:17:04;9.77;;;6.15;;
20557;SDS011;10437;48.156;11.530;2023-06-26T05:19:31;11.13;;;6.38;;
20557;SDS011;10437;48.156;11.530;2023-06-26T05:21:58;11.10;;;6.38;;
20557;SDS011;10437;48.156;11.530;2023-06-26T05:24:26;15.07;;;6.97;;
20557;SDS011;10437;48.156;11.530;2023-06-26T05:26:56;9.75;;;6.05;;
20557;SDS011;10437;48.156;11.530;2023-06-26T05:29:23;9.75;;;6.25;;
20557;SDS011;10437;48.156;11.530;2023-06-26T05:31:50;9.82;;;6.28;;
20557;SDS011;10437;48.156;11.530;2023-06-26T05:34:19;10.18;;;6.25;;
20557;SDS011;10437;48.156;11.530;2023-06-26T05:36:48;11.80;;;6.60;;
20557;SDS011;10437;48.156;11.530;2023-06-26T05:39:18;11.15;;;6.25;;
20557;SDS011;10437;48.156;11.530;2023-06-26T05:41:45;8.70;;;5.72;;
20557;SDS011;10437;48.156;11.530;2023-06-26T05:44:13;8.90;;;5.68;;
20557;SDS011;10437;48.156;11.530;2023-06-26T05:46:40;10.52;;;6.15;;
20557;SDS011;10437;48.156;11.530;2023-06-26T05:49:07;10.85;;;6.25;;
20557;SDS011;10437;48.156;11.530;2023-06-26T05:51:35;10.75;;;6.10;;
20557;SDS011;10437;48.156;11.530;2023-06-26T05:54:02;9.93;;;5.93;;
20557;SDS011;10437;48.156;11.530;2023-06-26T05:56:30;11.05;;;6.50;;
20557;SDS011;10437;48.156;11.530;2023-06-26T05:58:57;11.30;;;6.07;;
20557;SDS011;10437;48.156;11.530;2023-06-26T06:01:26;8.95;;;5.80;;
20557;SDS011;10437;48.156;11.530;2023-06-26T06:03:53;10.13;;;5.57;;
20557;SDS011;10437;48.156;11.530;2023-06-26T06:06:20;11.70;;;6.00;;
20557;SDS011;10437;48.156;11.530;2023-06-26T06:08:47;9.48;;;5.68;;
20557;SDS011;10437;48.156;11.530;2023-06-26T06:11:14;8.48;;;5.72;;
20557;SDS011;10437;48.156;11.530;2023-06-26T06:13:41;9.32;;;5.90;;
20557;SDS011;10437;48.156;11.530;2023-06-26T06:16:08;10.57;;;6.13;;
20557;SDS011;10437;48.156;11.530;2023-06-26T06:18:37;10.10;;;6.30;;
20557;SDS011;10437;48.156;11.530;2023-06-26T06:21:05;11.52;;;5.93;;
20557;SDS011;10437;48.156;11.530;2023-06-26T06:23:32;11.77;;;5.63;;
20557;SDS011;10437;48.156;11.530;2023-06-26T06:25:59;10.68;;;5.57;;
20557;SDS011;10437;48.156;11.530;2023-06-26T06:28:26;11.77;;;5.65;;
20557;SDS011;10437;48.156;11.530;2023-06-26T06:30:53;8.80;;;5.72;;
20557;SDS011;10437;48.156;11.530;2023-06-26T06:33:20;10.20;;;5.82;;
20557;SDS011;10437;48.156;11.530;2023-06-26T06:35:49;9.80;;;6.10;;
20557;SDS011;10437;48.156;11.530;2023-06-26T06:38:16;10.55;;;5.72;;
20557;SDS011;10437;48.156;11.530;2023-06-26T06:40:43;10.43;;;6.47;;
20557;SDS011;10437;48.156;11.530;2023-06-26T06:43:10;13.95;;;6.13;;
20557;SDS011;10437;48.156;11.530;2023-06-26T06:45:37;8.85;;;5.60;;
20557;SDS011;10437;48.156;11.530;2023-06-26T06:48:05;9.95;;;6.15;;
20557;SDS011;10437;48.156;11.530;2023-06-26T06:50:32;14.00;;;7.13;;
20557;SDS011;10437;48.156;11.530;2023-06-26T06:53:01;11.68;;;7.32;;
20557;SDS011;10437;48.156;11.530;2023-06-26T06:55:28;10.52;;;6.10;;
20557;SDS011;10437;48.156;11.530;2023-06-26T06:57:55;8.82;;;5.85;;
20557;SDS011;10437;48.156;11.530;2023-06-26T07:00:22;12.70;;;6.53;;
20557;SDS011;10437;48.156;11.530;2023-06-26T07:02:49;16.73;;;7.80;;
20557;SDS011;10437;48.156;11.530;2023-06-26T07:05:17;13.63;;;8.10;;
20557;SDS011;10437;48.156;11.530;2023-06-26T07:07:44;11.45;;;6.78;;
20557;SDS011;10437;48.156;11.530;2023-06-26T07:10:13;11.43;;;6.95;;
20557;SDS011;10437;48.156;11.530;2023-06-26T07:12:40;11.90;;;6.63;;
20557;SDS011;10437;48.156;11.530;2023-06-26T07:15:09;9.38;;;6.03;;
20557;SDS011;10437;48.156;11.530;2023-06-26T07:17:36;10.75;;;6.30;;
20557;SDS011;10437;48.156;11.530;2023-06-26T07:20:04;9.90;;;5.53;;
20557;SDS011;10437;48.156;11.530;2023-06-26T07:22:33;8.25;;;5.30;;
20557;SDS011;10437;48.156;11.530;2023-06-26T07:25:00;9.48;;;5.63;;
20557;SDS011;10437;48.156;11.530;2023-06-26T07:27:30;10.80;;;5.43;;
20557;SDS011;10437;48.156;11.530;2023-06-26T07:29:58;7.78;;;5.18;;
20557;SDS011;10437;48.156;11.530;2023-06-26T07:32:25;9.32;;;5.95;;
20557;SDS011;10437;48.156;11.530;2023-06-26T07:34:52;8.10;;;5.15;;
20557;SDS011;10437;48.156;11.530;2023-06-26T07:37:19;9.05;;;5.32;;
20557;SDS011;10437;48.156;11.530;2023-06-26T07:39:47;8.20;;;5.50;;
20557;SDS011;10437;48.156;11.530;2023-06-26T07:42:14;7.47;;;5.32;;
20557;SDS011;10437;48.156;11.530;2023-06-26T07:44:42;7.85;;;5.57;;
20557;SDS011;10437;48.156;11.530;2023-06-26T07:47:10;7.63;;;5.75;;
20557;SDS011;10437;48.156;11.530;2023-06-26T07:49:37;7.13;;;5.43;;
20557;SDS011;10437;48.156;11.530;2023-06-26T07:52:05;8.68;;;6.00;;
20557;SDS011;10437;48.156;11.530;2023-06-26T07:54:32;8.73;;;5.45;;
20557;SDS011;10437;48.156;11.530;2023-06-26T07:56:59;8.30;;;5.82;;
20557;SDS011;10437;48.156;11.530;2023-06-26T07:59:29;10.30;;;6.43;;
20557;SDS011;10437;48.156;11.530;2023-06-26T08:01:58;8.63;;;6.32;;
20557;SDS011;10437;48.156;11.530;2023-06-26T08:04:25;10.10;;;5.97;;
20557;SDS011;10437;48.156;11.530;2023-06-26T08:06:55;8.05;;;6.05;;
20557;SDS011;10437;48.156;11.530;2023-06-26T08:09:23;9.30;;;6.30;;
20557;SDS011;10437;48.156;11.530;2023-06-26T08:11:51;8.65;;;6.28;;
20557;SDS011;10437;48.156;11.530;2023-06-26T08:14:18;7.72;;;6.20;;
20557;SDS011;10437;48.156;11.530;2023-06-26T08:16:45;9.40;;;6.63;;
20557;SDS011;10437;48.156;11.530;2023-06-26T08:19:15;9.57;;;6.55;;
20557;SDS011;10437;48.156;11.530;2023-06-26T08:21:43;8.43;;;6.18;;
20557;SDS011;10437;48.156;11.530;2023-06-26T08:24:11;7.47;;;5.88;;
20557;SDS011;10437;48.156;11.530;2023-06-26T08:26:38;10.43;;;5.88;;
20557;SDS011;10437;48.156;11.530;2023-06-26T08:29:05;9.75;;;5.50;;
20557;SDS011;10437;48.156;11.530;2023-06-26T08:31:33;7.82;;;6.35;;
20557;SDS011;10437;48.156;11.530;2023-06-26T08:34:01;9.90;;;6.18;;
20557;SDS011;10437;48.156;11.530;2023-06-26T08:36:29;9.90;;;5.78;;
20557;SDS011;10437;48.156;11.530;2023-06-26T08:38:57;8.70;;;5.93;;
20557;SDS011;10437;48.156;11.530;2023-06-26T08:41:24;7.75;;;5.95;;
20557;SDS011;10437;48.156;11.530;2023-06-26T08:43:51;10.40;;;6.32;;
20557;SDS011;10437;48.156;11.530;2023-06-26T08:46:18;8.15;;;5.53;;
20557;SDS011;10437;48.156;11.530;2023-06-26T08:48:48;7.82;;;5.70;;
20557;SDS011;10437;48.156;11.530;2023-06-26T08:51:18;8.05;;;5.53;;
20557;SDS011;10437;48.156;11.530;2023-06-26T08:53:52;12.35;;;5.78;;
20557;SDS011;10437;48.156;11.530;2023-06-26T08:56:22;8.00;;;5.63;;
20557;SDS011;10437;48.156;11.530;2023-06-26T08:58:51;7.75;;;5.85;;
20557;SDS011;10437;48.156;11.530;2023-06-26T09:01:18;10.10;;;5.90;;
20557;SDS011;10437;48.156;11.530;2023-06-26T09:03:45;9.15;;;5.93;;
20557;SDS011;10437;48.156;11.530;2023-06-26T09:06:12;6.25;;;5.28;;
20557;SDS011;10437;48.156;11.530;2023-06-26T09:08:40;7.57;;;5.63;;
20557;SDS011;10437;48.156;11.530;2023-06-26T09:11:08;9.07;;;5.70;;
20557;SDS011;10437;48.156;11.530;2023-06-26T09:13:35;8.13;;;5.28;;
20557;SDS011;10437;48.156;11.530;2023-06-26T09:16:04;7.47;;;5.10;;
20557;SDS011;10437;48.156;11.530;2023-06-26T09:18:33;10.75;;;5.10;;
20557;SDS011;10437;48.156;11.530;2023-06-26T09:21:00;8.30;;;5.30;;
20557;SDS011;10437;48.156;11.530;2023-06-26T09:23:33;6.97;;;5.05;;
20557;SDS011;10437;48.156;11.530;2023-06-26T09:26:01;7.30;;;4.97;;
20557;SDS011;10437;48.156;11.530;2023-06-26T09:28:30;7.82;;;5.20;;
20557;SDS011;10437;48.156;11.530;2023-06-26T09:31:02;7.47;;;5.28;;
20557;SDS011;10437;48.156;11.530;2023-06-26T09:33:32;9.00;;;5.03;;
20557;SDS011;10437;48.156;11.530;2023-06-26T09:36:01;7.10;;;5.07;;
20557;SDS011;10437;48.156;11.530;2023-06-26T09:38:28;8.40;;;4.63;;
20557;SDS011;10437;48.156;11.530;2023-06-26T09:40:55;5.97;;;4.72;;
20557;SDS011;10437;48.156;11.530;2023-06-26T09:43:22;7.43;;;4.50;;
20557;SDS011;10437;48.156;11.530;2023-06-26T09:45:52;5.43;;;4.05;;
20557;SDS011;10437;48.156;11.530;2023-06-26T09:48:20;5.72;;;3.90;;
20557;SDS011;10437;48.156;11.530;2023-06-26T09:50:47;7.82;;;4.53;;
20557;SDS011;10437;48.156;11.530;2023-06-26T09:53:14;5.10;;;4.07;;
20557;SDS011;10437;48.156;11.530;2023-06-26T09:55:43;5.28;;;4.00;;
20557;SDS011;10437;48.156;11.530;2023-06-26T09:58:12;7.95;;;4.40;;
20557;SDS011;10437;48.156;11.530;2023-06-26T10:00:40;5.47;;;4.13;;
20557;SDS011;10437;48.156;11.530;2023-06-26T10:03:09;5.07;;;4.18;;
20557;SDS011;10437;48.156;11.530;2023-06-26T10:05:36;4.93;;;4.07;;
20557;SDS011;10437;48.156;11.530;2023-06-26T10:08:04;5.82;;;4.32;;
20557;SDS011;10437;48.156;11.530;2023-06-26T10:10:33;5.97;;;4.00;;
20557;SDS011;10437;48.156;11.530;2023-06-26T10:13:04;6.18;;;4.38;;
20557;SDS011;10437;48.156;11.530;2023-06-26T10:15:36;5.97;;;4.18;;
20557;SDS011;10437;48.156;11.530;2023-06-26T10:18:04;6.45;;;4.25;;
20557;SDS011;10437;48.156;11.530;2023-06-26T10:20:32;6.72;;;4.07;;
20557;SDS011;10437;48.156;11.530;2023-06-26T10:23:00;5.85;;;3.92;;
20557;SDS011;10437;48.156;11.530;2023-06-26T10:25:29;6.05;;;4.25;;
20557;SDS011;10437;48.156;11.530;2023-06-26T10:27:58;5.22;;;3.95;;
20557;SDS011;10437;48.156;11.530;2023-06-26T10:30:27;5.70;;;4.07;;
20557;SDS011;10437;48.156;11.530;2023-06-26T10:32:57;4.53;;;3.80;;
20557;SDS011;10437;48.156;11.530;2023-06-26T10:35:25;5.38;;;4.13;;
20557;SDS011;10437;48.156;11.530;2023-06-26T10:37:59;5.70;;;4.10;;
20557;SDS011;10437;48.156;11.530;2023-06-26T10:40:28;6.97;;;3.97;;
20557;SDS011;10437;48.156;11.530;2023-06-26T10:45:44;4.05;;;3.60;;
20557;SDS011;10437;48.156;11.530;2023-06-26T10:48:14;5.72;;;4.05;;
20557;SDS011;10437;48.156;11.530;2023-06-26T10:50:41;5.68;;;4.10;;
20557;SDS011;10437;48.156;11.530;2023-06-26T10:53:16;6.03;;;3.70;;
20557;SDS011;10437;48.156;11.530;2023-06-26T10:55:54;5.30;;;3.90;;
20557;SDS011;10437;48.156;11.530;2023-06-26T10:58:29;6.72;;;4.38;;
20557;SDS011;10437;48.156;11.530;2023-06-26T11:03:46;6.53;;;4.15;;
20557;SDS011;10437;48.156;11.530;2023-06-26T11:06:15;5.32;;;4.20;;
20557;SDS011;10437;48.156;11.530;2023-06-26T11:08:46;5.00;;;4.22;;
20557;SDS011;10437;48.156;11.530;2023-06-26T11:11:14;5.35;;;4.40;;
20557;SDS011;10437;48.156;11.530;2023-06-26T11:13:41;7.78;;;4.30;;
20557;SDS011;10437;48.156;11.530;2023-06-26T11:16:08;5.63;;;4.30;;
20557;SDS011;10437;48.156;11.530;2023-06-26T11:18:35;6.57;;;4.45;;
20557;SDS011;10437;48.156;11.530;2023-06-26T11:21:06;5.90;;;4.22;;
20557;SDS011;10437;48.156;11.530;2023-06-26T11:23:33;9.75;;;4.35;;
20557;SDS011;10437;48.156;11.530;2023-06-26T11:26:15;7.05;;;4.80;;
20557;SDS011;10437;48.156;11.530;2023-06-26T11:28:46;6.97;;;4.80;;
20557;SDS011;10437;48.156;11.530;2023-06-26T11:31:23;6.60;;;4.72;;
20557;SDS011;10437;48.156;11.530;2023-06-26T11:33:55;6.18;;;5.00;;
20557;SDS011;10437;48.156;11.530;2023-06-26T11:36:23;7.30;;;4.13;;
20557;SDS011;10437;48.156;11.530;2023-06-26T11:38:54;5.75;;;4.60;;
20557;SDS011;10437;48.156;11.530;2023-06-26T11:41:23;10.15;;;4.60;;
20557;SDS011;10437;48.156;11.530;2023-06-26T11:43:53;6.97;;;4.70;;
20557;SDS011;10437;48.156;11.530;2023-06-26T11:46:20;6.38;;;4.93;;
20557;SDS011;10437;48.156;11.530;2023-06-26T11:48:48;6.28;;;4.47;;
20557;SDS011;10437;48.156;11.530;2023-06-26T11:51:15;6.15;;;4.53;;
20557;SDS011;10437;48.156;11.530;2023-06-26T11:53:43;7.03;;;4.80;;
20557;SDS011;10437;48.156;11.530;2023-06-26T11:56:11;5.65;;;4.97;;
20557;SDS011;10437;48.156;11.530;2023-06-26T12:01:26;6.45;;;4.70;;
20557;SDS011;10437;48.156;11.530;2023-06-26T12:03:57;8.52;;;4.80;;
20557;SDS011;10437;48.156;11.530;2023-06-26T12:06:26;6.72;;;4.78;;
20557;SDS011;10437;48.156;11.530;2023-06-26T12:08:53;5.82;;;5.00;;
20557;SDS011;10437;48.156;11.530;2023-06-26T12:11:20;5.93;;;4.95;;
20557;SDS011;10437;48.156;11.530;2023-06-26T12:13:48;5.38;;;4.78;;
20557;SDS011;10437;48.156;11.530;2023-06-26T12:16:16;5.30;;;4.30;;
20557;SDS011;10437;48.156;11.530;2023-06-26T12:18:43;5.90;;;4.75;;
20557;SDS011;10437;48.156;11.530;2023-06-26T12:24:12;8.80;;;5.25;;
20557;SDS011;10437;48.156;11.530;2023-06-26T12:26:41;6.18;;;4.97;;
20557;SDS011;10437;48.156;11.530;2023-06-26T12:29:09;9.73;;;5.13;;
20557;SDS011;10437;48.156;11.530;2023-06-26T12:31:40;7.65;;;4.75;;
20557;SDS011;10437;48.156;11.530;2023-06-26T12:34:09;6.30;;;4.75;;
20557;SDS011;10437;48.156;11.530;2023-06-26T12:36:40;9.45;;;5.15;;
20557;SDS011;10437;48.156;11.530;2023-06-26T12:39:09;6.75;;;4.95;;
20557;SDS011;10437;48.156;11.530;2023-06-26T12:41:43;7.03;;;5.05;;
20557;SDS011;10437;48.156;11.530;2023-06-26T12:44:18;8.25;;;5.05;;
20557;SDS011;10437;48.156;11.530;2023-06-26T12:46:47;8.77;;;5.10;;
20557;SDS011;10437;48.156;11.530;2023-06-26T12:49:15;8.25;;;5.18;;
20557;SDS011;10437;48.156;11.530;2023-06-26T12:51:42;7.15;;;5.43;;
20557;SDS011;10437;48.156;11.530;2023-06-26T12:54:10;7.47;;;5.72;;
20557;SDS011;10437;48.156;11.530;2023-06-26T12:56:37;7.10;;;5.28;;
20557;SDS011;10437;48.156;11.530;2023-06-26T12:59:04;5.82;;;4.80;;
20557;SDS011;10437;48.156;11.530;2023-06-26T13:01:31;6.63;;;5.03;;
20557;SDS011;10437;48.156;11.530;2023-06-26T13:04:00;7.90;;;5.18;;
20557;SDS011;10437;48.156;11.530;2023-06-26T13:06:28;6.35;;;5.00;;
20557;SDS011;10437;48.156;11.530;2023-06-26T13:08:55;6.85;;;4.97;;
20557;SDS011;10437;48.156;11.530;2023-06-26T13:11:22;7.85;;;5.15;;
20557;SDS011;10437;48.156;11.530;2023-06-26T13:13:49;6.18;;;5.05;;
20557;SDS011;10437;48.156;11.530;2023-06-26T13:16:17;8.32;;;5.40;;
20557;SDS011;10437;48.156;11.530;2023-06-26T13:18:44;6.68;;;5.10;;
20557;SDS011;10437;48.156;11.530;2023-06-26T13:21:13;7.53;;;5.45;;
20557;SDS011;10437;48.156;11.530;2023-06-26T13:23:41;9.25;;;5.70;;
20557;SDS011;10437;48.156;11.530;2023-06-26T13:26:08;8.57;;;5.30;;
20557;SDS011;10437;48.156;11.530;2023-06-26T13:28:35;8.52;;;5.30;;
20557;SDS011;10437;48.156;11.530;2023-06-26T13:31:03;7.63;;;5.40;;
20557;SDS011;10437;48.156;11.530;2023-06-26T13:33:30;8.57;;;6.45;;
20557;SDS011;10437;48.156;11.530;2023-06-26T13:35:57;9.38;;;5.95;;
20557;SDS011;10437;48.156;11.530;2023-06-26T13:38:25;6.32;;;5.43;;
20557;SDS011;10437;48.156;11.530;2023-06-26T13:40:53;7.07;;;5.75;;
20557;SDS011;10437;48.156;11.530;2023-06-26T13:43:20;8.65;;;5.88;;
20557;SDS011;10437;48.156;11.530;2023-06-26T13:45:48;7.18;;;5.65;;
20557;SDS011;10437;48.156;11.530;2023-06-26T13:48:15;7.53;;;5.47;;
20557;SDS011;10437;48.156;11.530;2023-06-26T13:50:42;8.70;;;6.05;;
20557;SDS011;10437;48.156;11.530;2023-06-26T13:53:09;11.65;;;6.03;;
20557;SDS011;10437;48.156;11.530;2023-06-26T13:55:38;12.00;;;5.93;;
20557;SDS011;10437;48.156;11.530;2023-06-26T13:58:07;9.73;;;5.82;;
20557;SDS011;10437;48.156;11.530;2023-06-26T14:00:34;8.52;;;5.45;;
20557;SDS011;10437;48.156;11.530;2023-06-26T14:03:02;7.93;;;5.68;;
20557;SDS011;10437;48.156;11.530;2023-06-26T14:05:31;5.65;;;5.07;;
20557;SDS011;10437;48.156;11.530;2023-06-26T14:07:58;7.25;;;5.68;;
20557;SDS011;10437;48.156;11.530;2023-06-26T14:10:26;9.75;;;5.53;;
20557;SDS011;10437;48.156;11.530;2023-06-26T14:12:54;10.43;;;5.53;;
20557;SDS011;10437;48.156;11.530;2023-06-26T14:15:21;7.40;;;5.40;;
20557;SDS011;10437;48.156;11.530;2023-06-26T14:17:48;7.55;;;5.65;;
20557;SDS011;10437;48.156;11.530;2023-06-26T14:20:16;12.20;;;5.47;;
20557;SDS011;10437;48.156;11.530;2023-06-26T14:22:45;7.65;;;5.32;;
20557;SDS011;10437;48.156;11.530;2023-06-26T14:25:13;7.95;;;5.28;;
20557;SDS011;10437;48.156;11.530;2023-06-26T14:27:40;7.25;;;5.78;;
20557;SDS011;10437;48.156;11.530;2023-06-26T14:30:09;10.18;;;5.75;;
20557;SDS011;10437;48.156;11.530;2023-06-26T14:32:36;9.25;;;5.70;;
20557;SDS011;10437;48.156;11.530;2023-06-26T14:35:04;7.47;;;5.80;;
20557;SDS011;10437;48.156;11.530;2023-06-26T14:37:31;7.78;;;6.03;;
20557;SDS011;10437;48.156;11.530;2023-06-26T14:39:58;7.10;;;6.05;;
20557;SDS011;10437;48.156;11.530;2023-06-26T14:42:25;7.65;;;5.72;;
20557;SDS011;10437;48.156;11.530;2023-06-26T14:44:52;11.27;;;5.85;;
20557;SDS011;10437;48.156;11.530;2023-06-26T14:47:21;8.23;;;5.70;;